sensor_id;sensor_type;location;lat;lon;timestamp;P1;durP1;ratioP1;P2;durP2;ratioP2
11524;SDS011;5819;49.648;8.330;2023-06-10T00:00:04;10.30;;;9.25;;
11524;SDS011;5819;49.648;8.330;2023-06-10T00:02:42;11.18;;;10.13;;
11524;SDS011;5819;49.648;8.330;2023-06-10T00:05:14;11.70;;;10.57;;
11524;SDS011;5819;49.648;8.330;2023-06-10T00:07:43;11.23;;;10.13;;
11524;SDS011;5819;49.648;8.330;2023-06-10T00:10:14;11.07;;;9.90;;
11524;SDS011;5819;49.648;8.330;2023-06-10T00:12:42;10.98;;;9.88;;
11524;SDS011;5819;49.648;8.330;2023-06-10T00:15:10;10.48;;;9.48;;
11524;SDS011;5819;49.648;8.330;2023-06-10T00:17:38;10.85;;;9.75;;
11524;SDS011;5819;49.648;8.330;2023-06-10T00:20:09;10.60;;;9.50;;
11524;SDS011;5819;49.648;8.330;2023-06-10T00:22:38;10.75;;;9.85;;
11524;SDS011;5819;49.648;8.330;2023-06-10T00:25:08;11.20;;;10.02;;
11524;SDS011;5819;49.648;8.330;2023-06-10T00:27:38;11.20;;;10.10;;
11524;SDS011;5819;49.648;8.330;2023-06-10T00:30:07;11.55;;;9.65;;
11524;SDS011;5819;49.648;8.330;2023-06-10T00:32:36;11.43;;;10.52;;
11524;SDS011;5819;49.648;8.330;2023-06-10T00:35:05;10.75;;;9.65;;
11524;SDS011;5819;49.648;8.330;2023-06-10T00:37:34;12.05;;;10.13;;
11524;SDS011;5819;49.648;8.330;2023-06-10T00:40:03;10.43;;;9.23;;
11524;SDS011;5819;49.648;8.330;2023-06-10T00:42:31;11.95;;;9.90;;
11524;SDS011;5819;49.648;8.330;2023-06-10T00:45:01;11.77;;;10.43;;
11524;SDS011;5819;49.648;8.330;2023-06-10T00:47:30;10.90;;;9.80;;
11524;SDS011;5819;49.648;8.330;2023-06-10T00:49:59;10.75;;;9.70;;
11524;SDS011;5819;49.648;8.330;2023-06-10T00:52:28;10.95;;;9.95;;
11524;SDS011;5819;49.648;8.330;2023-06-10T00:54:57;11.60;;;10.50;;
11524;SDS011;5819;49.648;8.330;2023-06-10T00:57:26;11.13;;;9.95;;
11524;SDS011;5819;49.648;8.330;2023-06-10T00:59:56;11.57;;;10.20;;
11524;SDS011;5819;49.648;8.330;2023-06-10T01:02:27;10.52;;;9.55;;
11524;SDS011;5819;49.648;8.330;2023-06-10T01:04:57;11.63;;;10.63;;
11524;SDS011;5819;49.648;8.330;2023-06-10T01:07:31;14.52;;;10.15;;
11524;SDS011;5819;49.648;8.330;2023-06-10T01:10:05;10.90;;;10.00;;
11524;SDS011;5819;49.648;8.330;2023-06-10T01:12:39;12.13;;;11.05;;
11524;SDS011;5819;49.648;8.330;2023-06-10T01:15:15;10.32;;;9.35;;
11524;SDS011;5819;49.648;8.330;2023-06-10T01:17:56;11.73;;;10.50;;
11524;SDS011;5819;49.648;8.330;2023-06-10T01:20:25;11.18;;;9.95;;
11524;SDS011;5819;49.648;8.330;2023-06-10T01:22:57;12.32;;;11.23;;
11524;SDS011;5819;49.648;8.330;2023-06-10T01:25:27;11.13;;;10.02;;
11524;SDS011;5819;49.648;8.330;2023-06-10T01:27:59;11.73;;;10.38;;
11524;SDS011;5819;49.648;8.330;2023-06-10T01:30:35;11.55;;;10.55;;
11524;SDS011;5819;49.648;8.330;2023-06-10T01:33:10;11.43;;;10.20;;
11524;SDS011;5819;49.648;8.330;2023-06-10T01:35:43;11.95;;;10.52;;
11524;SDS011;5819;49.648;8.330;2023-06-10T01:38:14;12.48;;;10.48;;
11524;SDS011;5819;49.648;8.330;2023-06-10T01:40:43;10.98;;;9.95;;
11524;SDS011;5819;49.648;8.330;2023-06-10T01:43:14;11.38;;;10.43;;
11524;SDS011;5819;49.648;8.330;2023-06-10T01:45:42;13.45;;;10.38;;
11524;SDS011;5819;49.648;8.330;2023-06-10T01:48:11;11.88;;;10.65;;
11524;SDS011;5819;49.648;8.330;2023-06-10T01:50:38;11.07;;;10.07;;
11524;SDS011;5819;49.648;8.330;2023-06-10T01:53:07;11.88;;;10.82;;
11524;SDS011;5819;49.648;8.330;2023-06-10T01:55:36;11.65;;;10.48;;
11524;SDS011;5819;49.648;8.330;2023-06-10T01:58:04;11.45;;;10.23;;
11524;SDS011;5819;49.648;8.330;2023-06-10T02:00:33;11.07;;;10.00;;
11524;SDS011;5819;49.648;8.330;2023-06-10T02:03:01;11.70;;;10.35;;
11524;SDS011;5819;49.648;8.330;2023-06-10T02:05:30;12.70;;;10.40;;
11524;SDS011;5819;49.648;8.330;2023-06-10T02:07:59;11.32;;;10.07;;
11524;SDS011;5819;49.648;8.330;2023-06-10T02:10:29;11.35;;;10.25;;
11524;SDS011;5819;49.648;8.330;2023-06-10T02:12:58;10.98;;;9.98;;
11524;SDS011;5819;49.648;8.330;2023-06-10T02:15:26;12.10;;;10.25;;
11524;SDS011;5819;49.648;8.330;2023-06-10T02:17:54;11.00;;;9.90;;
11524;SDS011;5819;49.648;8.330;2023-06-10T02:20:23;10.88;;;9.52;;
11524;SDS011;5819;49.648;8.330;2023-06-10T02:22:51;11.38;;;10.38;;
11524;SDS011;5819;49.648;8.330;2023-06-10T02:25:19;10.25;;;9.27;;
11524;SDS011;5819;49.648;8.330;2023-06-10T02:27:46;11.27;;;9.98;;
11524;SDS011;5819;49.648;8.330;2023-06-10T02:30:16;11.27;;;10.27;;
11524;SDS011;5819;49.648;8.330;2023-06-10T02:32:45;11.15;;;9.73;;
11524;SDS011;5819;49.648;8.330;2023-06-10T02:35:16;11.32;;;10.23;;
11524;SDS011;5819;49.648;8.330;2023-06-10T02:37:45;11.60;;;10.50;;
11524;SDS011;5819;49.648;8.330;2023-06-10T02:40:13;11.40;;;10.23;;
11524;SDS011;5819;49.648;8.330;2023-06-10T02:42:42;11.10;;;10.10;;
11524;SDS011;5819;49.648;8.330;2023-06-10T02:45:10;12.45;;;10.27;;
11524;SDS011;5819;49.648;8.330;2023-06-10T02:47:43;11.23;;;10.18;;
11524;SDS011;5819;49.648;8.330;2023-06-10T02:50:12;11.63;;;10.52;;
11524;SDS011;5819;49.648;8.330;2023-06-10T02:52:50;10.60;;;9.57;;
11524;SDS011;5819;49.648;8.330;2023-06-10T02:55:27;10.90;;;9.82;;
11524;SDS011;5819;49.648;8.330;2023-06-10T02:58:00;11.18;;;10.13;;
11524;SDS011;5819;49.648;8.330;2023-06-10T03:00:30;12.27;;;10.45;;
11524;SDS011;5819;49.648;8.330;2023-06-10T03:03:00;11.27;;;10.27;;
11524;SDS011;5819;49.648;8.330;2023-06-10T03:05:34;10.90;;;10.00;;
11524;SDS011;5819;49.648;8.330;2023-06-10T03:08:04;11.07;;;9.98;;
11524;SDS011;5819;49.648;8.330;2023-06-10T03:10:35;11.60;;;10.20;;
11524;SDS011;5819;49.648;8.330;2023-06-10T03:13:04;14.70;;;10.52;;
11524;SDS011;5819;49.648;8.330;2023-06-10T03:15:32;11.63;;;10.57;;
11524;SDS011;5819;49.648;8.330;2023-06-10T03:18:05;11.77;;;10.68;;
11524;SDS011;5819;49.648;8.330;2023-06-10T03:20:34;14.00;;;10.98;;
11524;SDS011;5819;49.648;8.330;2023-06-10T03:23:05;11.20;;;10.10;;
11524;SDS011;5819;49.648;8.330;2023-06-10T03:25:34;12.10;;;10.25;;
11524;SDS011;5819;49.648;8.330;2023-06-10T03:28:03;12.18;;;10.98;;
11524;SDS011;5819;49.648;8.330;2023-06-10T03:30:32;12.00;;;10.70;;
11524;SDS011;5819;49.648;8.330;2023-06-10T03:33:00;11.32;;;10.15;;
11524;SDS011;5819;49.648;8.330;2023-06-10T03:35:30;11.93;;;10.73;;
11524;SDS011;5819;49.648;8.330;2023-06-10T03:37:59;13.18;;;10.65;;
11524;SDS011;5819;49.648;8.330;2023-06-10T03:40:27;11.98;;;10.77;;
11524;SDS011;5819;49.648;8.330;2023-06-10T03:42:57;12.35;;;11.07;;
11524;SDS011;5819;49.648;8.330;2023-06-10T03:45:25;12.00;;;10.88;;
11524;SDS011;5819;49.648;8.330;2023-06-10T03:47:55;11.52;;;10.52;;
11524;SDS011;5819;49.648;8.330;2023-06-10T03:50:32;11.80;;;10.60;;
11524;SDS011;5819;49.648;8.330;2023-06-10T03:52:59;12.48;;;11.07;;
11524;SDS011;5819;49.648;8.330;2023-06-10T03:55:27;13.52;;;11.15;;
11524;SDS011;5819;49.648;8.330;2023-06-10T03:57:57;11.32;;;10.23;;
11524;SDS011;5819;49.648;8.330;2023-06-10T04:00:26;11.57;;;10.38;;
11524;SDS011;5819;49.648;8.330;2023-06-10T04:02:55;12.15;;;11.05;;
11524;SDS011;5819;49.648;8.330;2023-06-10T04:05:33;12.43;;;11.32;;
11524;SDS011;5819;49.648;8.330;2023-06-10T04:08:01;12.20;;;10.32;;
11524;SDS011;5819;49.648;8.330;2023-06-10T04:10:29;15.18;;;10.48;;
11524;SDS011;5819;49.648;8.330;2023-06-10T04:12:57;12.88;;;10.75;;
11524;SDS011;5819;49.648;8.330;2023-06-10T04:15:31;11.98;;;10.68;;
11524;SDS011;5819;49.648;8.330;2023-06-10T04:18:04;11.63;;;10.43;;
11524;SDS011;5819;49.648;8.330;2023-06-10T04:20:34;12.40;;;11.23;;
11524;SDS011;5819;49.648;8.330;2023-06-10T04:23:02;12.63;;;11.20;;
11524;SDS011;5819;49.648;8.330;2023-06-10T04:25:31;11.18;;;10.07;;
11524;SDS011;5819;49.648;8.330;2023-06-10T04:27:58;12.20;;;10.02;;
11524;SDS011;5819;49.648;8.330;2023-06-10T04:30:27;12.85;;;11.00;;
11524;SDS011;5819;49.648;8.330;2023-06-10T04:32:55;11.52;;;10.38;;
11524;SDS011;5819;49.648;8.330;2023-06-10T04:35:23;11.32;;;10.32;;
11524;SDS011;5819;49.648;8.330;2023-06-10T04:37:55;14.77;;;10.77;;
11524;SDS011;5819;49.648;8.330;2023-06-10T04:40:23;11.05;;;9.90;;
11524;SDS011;5819;49.648;8.330;2023-06-10T04:42:52;12.68;;;11.48;;
11524;SDS011;5819;49.648;8.330;2023-06-10T04:45:20;12.02;;;10.82;;
11524;SDS011;5819;49.648;8.330;2023-06-10T04:47:49;10.90;;;9.90;;
11524;SDS011;5819;49.648;8.330;2023-06-10T04:50:18;10.73;;;9.73;;
11524;SDS011;5819;49.648;8.330;2023-06-10T04:52:47;11.93;;;10.77;;
11524;SDS011;5819;49.648;8.330;2023-06-10T04:55:17;11.43;;;10.43;;
11524;SDS011;5819;49.648;8.330;2023-06-10T04:57:44;10.93;;;9.93;;
11524;SDS011;5819;49.648;8.330;2023-06-10T05:00:15;11.43;;;10.35;;
11524;SDS011;5819;49.648;8.330;2023-06-10T05:02:43;10.70;;;9.80;;
11524;SDS011;5819;49.648;8.330;2023-06-10T05:05:16;11.20;;;10.10;;
11524;SDS011;5819;49.648;8.330;2023-06-10T05:07:44;11.38;;;10.18;;
11524;SDS011;5819;49.648;8.330;2023-06-10T05:10:12;11.40;;;9.35;;
11524;SDS011;5819;49.648;8.330;2023-06-10T05:12:42;10.02;;;9.02;;
11524;SDS011;5819;49.648;8.330;2023-06-10T05:15:10;11.68;;;9.38;;
11524;SDS011;5819;49.648;8.330;2023-06-10T05:17:38;11.45;;;9.70;;
11524;SDS011;5819;49.648;8.330;2023-06-10T05:20:07;10.63;;;9.60;;
11524;SDS011;5819;49.648;8.330;2023-06-10T05:22:35;10.98;;;9.88;;
11524;SDS011;5819;49.648;8.330;2023-06-10T05:25:04;10.10;;;9.13;;
11524;SDS011;5819;49.648;8.330;2023-06-10T05:27:34;10.35;;;9.35;;
11524;SDS011;5819;49.648;8.330;2023-06-10T05:30:05;12.68;;;9.45;;
11524;SDS011;5819;49.648;8.330;2023-06-10T05:32:34;12.57;;;9.07;;
11524;SDS011;5819;49.648;8.330;2023-06-10T05:35:02;10.00;;;9.02;;
11524;SDS011;5819;49.648;8.330;2023-06-10T05:37:31;9.88;;;8.93;;
11524;SDS011;5819;49.648;8.330;2023-06-10T05:40:00;11.93;;;9.13;;
11524;SDS011;5819;49.648;8.330;2023-06-10T05:42:30;11.05;;;9.13;;
11524;SDS011;5819;49.648;8.330;2023-06-10T05:44:59;10.30;;;8.85;;
11524;SDS011;5819;49.648;8.330;2023-06-10T05:47:28;9.65;;;8.70;;
11524;SDS011;5819;49.648;8.330;2023-06-10T05:49:56;9.52;;;8.60;;
11524;SDS011;5819;49.648;8.330;2023-06-10T05:52:24;12.48;;;9.15;;
11524;SDS011;5819;49.648;8.330;2023-06-10T05:54:52;9.65;;;8.70;;
11524;SDS011;5819;49.648;8.330;2023-06-10T05:57:20;14.68;;;9.73;;
11524;SDS011;5819;49.648;8.330;2023-06-10T05:59:49;10.93;;;9.02;;
11524;SDS011;5819;49.648;8.330;2023-06-10T06:02:17;10.25;;;9.25;;
11524;SDS011;5819;49.648;8.330;2023-06-10T06:04:46;10.98;;;8.88;;
11524;SDS011;5819;49.648;8.330;2023-06-10T06:07:14;9.68;;;8.68;;
11524;SDS011;5819;49.648;8.330;2023-06-10T06:09:43;17.63;;;15.32;;
11524;SDS011;5819;49.648;8.330;2023-06-10T06:12:10;10.45;;;9.32;;
11524;SDS011;5819;49.648;8.330;2023-06-10T06:14:38;10.43;;;9.30;;
11524;SDS011;5819;49.648;8.330;2023-06-10T06:17:07;9.82;;;8.93;;
11524;SDS011;5819;49.648;8.330;2023-06-10T06:19:35;9.50;;;8.60;;
11524;SDS011;5819;49.648;8.330;2023-06-10T06:22:05;11.20;;;8.82;;
11524;SDS011;5819;49.648;8.330;2023-06-10T06:24:34;10.38;;;8.55;;
11524;SDS011;5819;49.648;8.330;2023-06-10T06:27:02;9.80;;;8.82;;
11524;SDS011;5819;49.648;8.330;2023-06-10T06:29:30;10.88;;;9.20;;
11524;SDS011;5819;49.648;8.330;2023-06-10T06:31:59;9.90;;;8.90;;
11524;SDS011;5819;49.648;8.330;2023-06-10T06:34:27;10.20;;;9.20;;
11524;SDS011;5819;49.648;8.330;2023-06-10T06:36:56;9.68;;;8.68;;
11524;SDS011;5819;49.648;8.330;2023-06-10T06:39:25;10.90;;;8.80;;
11524;SDS011;5819;49.648;8.330;2023-06-10T06:41:53;10.20;;;8.35;;
11524;SDS011;5819;49.648;8.330;2023-06-10T06:44:38;9.32;;;8.52;;
11524;SDS011;5819;49.648;8.330;2023-06-10T06:47:06;9.38;;;8.57;;
11524;SDS011;5819;49.648;8.330;2023-06-10T06:49:34;9.32;;;8.48;;
11524;SDS011;5819;49.648;8.330;2023-06-10T06:52:12;9.35;;;8.45;;
11524;SDS011;5819;49.648;8.330;2023-06-10T06:54:44;9.40;;;8.50;;
11524;SDS011;5819;49.648;8.330;2023-06-10T06:57:13;9.93;;;8.93;;
11524;SDS011;5819;49.648;8.330;2023-06-10T06:59:43;9.45;;;8.65;;
11524;SDS011;5819;49.648;8.330;2023-06-10T07:02:11;10.80;;;9.02;;
11524;SDS011;5819;49.648;8.330;2023-06-10T07:04:40;10.07;;;8.18;;
11524;SDS011;5819;49.648;8.330;2023-06-10T07:07:08;8.55;;;7.85;;
11524;SDS011;5819;49.648;8.330;2023-06-10T07:09:37;9.30;;;8.38;;
11524;SDS011;5819;49.648;8.330;2023-06-10T07:12:07;9.35;;;8.38;;
11524;SDS011;5819;49.648;8.330;2023-06-10T07:14:36;8.73;;;7.97;;
11524;SDS011;5819;49.648;8.330;2023-06-10T07:17:05;9.38;;;7.93;;
11524;SDS011;5819;49.648;8.330;2023-06-10T07:19:33;9.90;;;8.90;;
11524;SDS011;5819;49.648;8.330;2023-06-10T07:22:01;9.77;;;8.35;;
11524;SDS011;5819;49.648;8.330;2023-06-10T07:24:30;11.90;;;7.80;;
11524;SDS011;5819;49.648;8.330;2023-06-10T07:26:58;9.10;;;8.00;;
11524;SDS011;5819;49.648;8.330;2023-06-10T07:29:28;8.65;;;7.75;;
11524;SDS011;5819;49.648;8.330;2023-06-10T07:31:56;8.50;;;7.55;;
11524;SDS011;5819;49.648;8.330;2023-06-10T07:34:24;9.65;;;8.65;;
11524;SDS011;5819;49.648;8.330;2023-06-10T07:36:52;9.15;;;8.25;;
11524;SDS011;5819;49.648;8.330;2023-06-10T07:39:20;8.55;;;7.75;;
11524;SDS011;5819;49.648;8.330;2023-06-10T07:41:49;8.57;;;7.38;;
11524;SDS011;5819;49.648;8.330;2023-06-10T07:44:20;9.02;;;7.63;;
11524;SDS011;5819;49.648;8.330;2023-06-10T07:46:49;8.50;;;7.70;;
11524;SDS011;5819;49.648;8.330;2023-06-10T07:49:18;9.18;;;7.78;;
11524;SDS011;5819;49.648;8.330;2023-06-10T07:51:46;8.88;;;7.70;;
11524;SDS011;5819;49.648;8.330;2023-06-10T07:54:15;8.20;;;7.15;;
11524;SDS011;5819;49.648;8.330;2023-06-10T07:56:43;8.05;;;7.35;;
11524;SDS011;5819;49.648;8.330;2023-06-10T07:59:13;8.27;;;7.32;;
11524;SDS011;5819;49.648;8.330;2023-06-10T08:01:41;7.90;;;6.93;;
11524;SDS011;5819;49.648;8.330;2023-06-10T08:04:10;7.88;;;7.15;;
11524;SDS011;5819;49.648;8.330;2023-06-10T08:06:39;7.80;;;7.10;;
11524;SDS011;5819;49.648;8.330;2023-06-10T08:09:07;7.57;;;6.68;;
11524;SDS011;5819;49.648;8.330;2023-06-10T08:11:34;8.35;;;7.55;;
11524;SDS011;5819;49.648;8.330;2023-06-10T08:14:03;7.55;;;6.95;;
11524;SDS011;5819;49.648;8.330;2023-06-10T08:16:30;8.00;;;6.55;;
11524;SDS011;5819;49.648;8.330;2023-06-10T08:18:58;8.60;;;7.00;;
11524;SDS011;5819;49.648;8.330;2023-06-10T08:21:27;7.97;;;7.32;;
11524;SDS011;5819;49.648;8.330;2023-06-10T08:23:56;8.48;;;7.68;;
11524;SDS011;5819;49.648;8.330;2023-06-10T08:26:24;7.90;;;7.15;;
11524;SDS011;5819;49.648;8.330;2023-06-10T08:28:52;7.50;;;6.90;;
11524;SDS011;5819;49.648;8.330;2023-06-10T08:31:21;8.38;;;7.50;;
11524;SDS011;5819;49.648;8.330;2023-06-10T08:33:48;7.68;;;6.97;;
11524;SDS011;5819;49.648;8.330;2023-06-10T08:36:16;8.20;;;7.22;;
11524;SDS011;5819;49.648;8.330;2023-06-10T08:38:46;7.10;;;6.50;;
11524;SDS011;5819;49.648;8.330;2023-06-10T08:41:14;8.27;;;7.05;;
11524;SDS011;5819;49.648;8.330;2023-06-10T08:43:45;9.18;;;7.28;;
11524;SDS011;5819;49.648;8.330;2023-06-10T08:46:21;7.03;;;6.43;;
11524;SDS011;5819;49.648;8.330;2023-06-10T08:48:49;8.20;;;6.80;;
11524;SDS011;5819;49.648;8.330;2023-06-10T08:51:22;10.88;;;7.05;;
11524;SDS011;5819;49.648;8.330;2023-06-10T08:53:56;7.30;;;6.60;;
11524;SDS011;5819;49.648;8.330;2023-06-10T08:56:29;7.32;;;6.57;;
11524;SDS011;5819;49.648;8.330;2023-06-10T08:58:58;10.55;;;7.22;;
11524;SDS011;5819;49.648;8.330;2023-06-10T09:01:26;7.95;;;6.90;;
11524;SDS011;5819;49.648;8.330;2023-06-10T09:03:56;7.95;;;6.82;;
11524;SDS011;5819;49.648;8.330;2023-06-10T09:06:26;7.80;;;6.32;;
11524;SDS011;5819;49.648;8.330;2023-06-10T09:08:55;6.70;;;5.95;;
11524;SDS011;5819;49.648;8.330;2023-06-10T09:11:28;7.03;;;6.32;;
11524;SDS011;5819;49.648;8.330;2023-06-10T09:13:56;6.60;;;6.00;;
11524;SDS011;5819;49.648;8.330;2023-06-10T09:16:24;8.30;;;6.43;;
11524;SDS011;5819;49.648;8.330;2023-06-10T09:18:52;7.43;;;6.72;;
11524;SDS011;5819;49.648;8.330;2023-06-10T09:21:21;7.30;;;6.60;;
11524;SDS011;5819;49.648;8.330;2023-06-10T09:23:49;9.75;;;6.40;;
11524;SDS011;5819;49.648;8.330;2023-06-10T09:26:19;7.05;;;6.45;;
11524;SDS011;5819;49.648;8.330;2023-06-10T09:28:47;7.88;;;7.05;;
11524;SDS011;5819;49.648;8.330;2023-06-10T09:31:16;8.30;;;7.00;;
11524;SDS011;5819;49.648;8.330;2023-06-10T09:33:45;9.80;;;7.65;;
11524;SDS011;5819;49.648;8.330;2023-06-10T09:36:20;7.78;;;6.97;;
11524;SDS011;5819;49.648;8.330;2023-06-10T09:38:49;7.55;;;6.82;;
11524;SDS011;5819;49.648;8.330;2023-06-10T09:41:19;8.23;;;7.43;;
11524;SDS011;5819;49.648;8.330;2023-06-10T09:43:48;7.85;;;7.18;;
11524;SDS011;5819;49.648;8.330;2023-06-10T09:46:15;7.97;;;6.93;;
11524;SDS011;5819;49.648;8.330;2023-06-10T09:48:45;8.02;;;6.85;;
11524;SDS011;5819;49.648;8.330;2023-06-10T09:51:14;7.45;;;6.75;;
11524;SDS011;5819;49.648;8.330;2023-06-10T09:53:47;7.22;;;6.63;;
11524;SDS011;5819;49.648;8.330;2023-06-10T09:56:16;7.35;;;6.75;;
11524;SDS011;5819;49.648;8.330;2023-06-10T09:58:45;7.00;;;6.30;;
11524;SDS011;5819;49.648;8.330;2023-06-10T10:01:14;7.45;;;6.75;;
11524;SDS011;5819;49.648;8.330;2023-06-10T10:03:43;7.00;;;6.45;;
11524;SDS011;5819;49.648;8.330;2023-06-10T10:06:12;6.65;;;6.03;;
11524;SDS011;5819;49.648;8.330;2023-06-10T10:08:42;7.85;;;6.00;;
11524;SDS011;5819;49.648;8.330;2023-06-10T10:11:10;8.77;;;6.35;;
11524;SDS011;5819;49.648;8.330;2023-06-10T10:13:39;6.63;;;6.00;;
11524;SDS011;5819;49.648;8.330;2023-06-10T10:16:11;6.95;;;6.28;;
11524;SDS011;5819;49.648;8.330;2023-06-10T10:18:43;6.75;;;6.15;;
11524;SDS011;5819;49.648;8.330;2023-06-10T10:21:17;6.05;;;5.55;;
11524;SDS011;5819;49.648;8.330;2023-06-10T10:23:52;5.72;;;5.13;;
11524;SDS011;5819;49.648;8.330;2023-06-10T10:26:25;7.97;;;5.53;;
11524;SDS011;5819;49.648;8.330;2023-06-10T10:28:58;6.03;;;5.50;;
11524;SDS011;5819;49.648;8.330;2023-06-10T10:31:36;6.20;;;5.60;;
11524;SDS011;5819;49.648;8.330;2023-06-10T10:34:07;6.45;;;5.93;;
11524;SDS011;5819;49.648;8.330;2023-06-10T10:36:39;5.50;;;5.10;;
11524;SDS011;5819;49.648;8.330;2023-06-10T10:39:08;6.13;;;5.53;;
11524;SDS011;5819;49.648;8.330;2023-06-10T10:41:37;5.90;;;5.38;;
11524;SDS011;5819;49.648;8.330;2023-06-10T10:44:06;5.57;;;5.07;;
11524;SDS011;5819;49.648;8.330;2023-06-10T10:46:43;6.90;;;5.05;;
11524;SDS011;5819;49.648;8.330;2023-06-10T10:49:12;6.28;;;5.18;;
11524;SDS011;5819;49.648;8.330;2023-06-10T10:51:54;5.43;;;4.35;;
11524;SDS011;5819;49.648;8.330;2023-06-10T10:54:28;5.20;;;4.70;;
11524;SDS011;5819;49.648;8.330;2023-06-10T10:57:11;5.20;;;4.70;;
11524;SDS011;5819;49.648;8.330;2023-06-10T11:02:36;6.00;;;4.43;;
11524;SDS011;5819;49.648;8.330;2023-06-10T11:05:08;5.13;;;4.72;;
11524;SDS011;5819;49.648;8.330;2023-06-10T11:07:38;5.50;;;5.05;;
11524;SDS011;5819;49.648;8.330;2023-06-10T11:10:07;7.07;;;4.72;;
11524;SDS011;5819;49.648;8.330;2023-06-10T11:12:40;5.78;;;4.45;;
11524;SDS011;5819;49.648;8.330;2023-06-10T11:15:09;5.40;;;4.82;;
11524;SDS011;5819;49.648;8.330;2023-06-10T11:17:38;4.65;;;4.28;;
11524;SDS011;5819;49.648;8.330;2023-06-10T11:20:59;5.53;;;5.03;;
11524;SDS011;5819;49.648;8.330;2023-06-10T11:23:33;6.95;;;4.25;;
11524;SDS011;5819;49.648;8.330;2023-06-10T11:26:09;5.70;;;5.05;;
11524;SDS011;5819;49.648;8.330;2023-06-10T11:28:38;6.22;;;5.32;;
11524;SDS011;5819;49.648;8.330;2023-06-10T11:31:06;5.90;;;5.28;;
11524;SDS011;5819;49.648;8.330;2023-06-10T11:33:35;7.38;;;5.18;;
11524;SDS011;5819;49.648;8.330;2023-06-10T11:36:06;5.70;;;5.15;;
11524;SDS011;5819;49.648;8.330;2023-06-10T11:38:34;6.28;;;4.90;;
11524;SDS011;5819;49.648;8.330;2023-06-10T11:41:03;7.20;;;5.60;;
11524;SDS011;5819;49.648;8.330;2023-06-10T11:43:31;6.22;;;4.90;;
11524;SDS011;5819;49.648;8.330;2023-06-10T11:45:59;5.20;;;4.80;;
11524;SDS011;5819;49.648;8.330;2023-06-10T11:48:28;5.65;;;5.15;;
11524;SDS011;5819;49.648;8.330;2023-06-10T11:50:58;5.53;;;5.07;;
11524;SDS011;5819;49.648;8.330;2023-06-10T11:53:26;6.15;;;4.70;;
11524;SDS011;5819;49.648;8.330;2023-06-10T11:55:54;5.93;;;4.90;;
11524;SDS011;5819;49.648;8.330;2023-06-10T11:58:22;5.25;;;4.75;;
11524;SDS011;5819;49.648;8.330;2023-06-10T12:00:51;5.15;;;4.75;;
11524;SDS011;5819;49.648;8.330;2023-06-10T12:03:21;5.43;;;4.90;;
11524;SDS011;5819;49.648;8.330;2023-06-10T12:05:58;5.05;;;4.65;;
11524;SDS011;5819;49.648;8.330;2023-06-10T12:08:27;5.57;;;5.05;;
11524;SDS011;5819;49.648;8.330;2023-06-10T12:10:55;6.40;;;4.78;;
11524;SDS011;5819;49.648;8.330;2023-06-10T12:13:25;5.65;;;5.05;;
11524;SDS011;5819;49.648;8.330;2023-06-10T12:15:54;4.82;;;4.43;;
11524;SDS011;5819;49.648;8.330;2023-06-10T12:18:33;6.57;;;5.40;;
11524;SDS011;5819;49.648;8.330;2023-06-10T12:21:03;4.75;;;4.38;;
11524;SDS011;5819;49.648;8.330;2023-06-10T12:23:33;5.88;;;4.38;;
11524;SDS011;5819;49.648;8.330;2023-06-10T12:26:01;4.88;;;4.38;;
11524;SDS011;5819;49.648;8.330;2023-06-10T12:28:29;4.88;;;4.40;;
11524;SDS011;5819;49.648;8.330;2023-06-10T12:31:06;8.43;;;4.30;;
11524;SDS011;5819;49.648;8.330;2023-06-10T12:33:35;4.55;;;4.00;;
11524;SDS011;5819;49.648;8.330;2023-06-10T12:36:05;5.28;;;4.22;;
11524;SDS011;5819;49.648;8.330;2023-06-10T12:38:43;6.10;;;4.10;;
11524;SDS011;5819;49.648;8.330;2023-06-10T12:41:11;4.82;;;3.97;;
11524;SDS011;5819;49.648;8.330;2023-06-10T12:43:40;4.05;;;3.75;;
11524;SDS011;5819;49.648;8.330;2023-06-10T12:46:08;4.05;;;3.65;;
11524;SDS011;5819;49.648;8.330;2023-06-10T12:48:48;4.60;;;4.18;;
11524;SDS011;5819;49.648;8.330;2023-06-10T12:51:19;4.22;;;3.92;;
11524;SDS011;5819;49.648;8.330;2023-06-10T12:53:47;4.40;;;4.00;;
11524;SDS011;5819;49.648;8.330;2023-06-10T12:56:15;4.25;;;3.85;;
11524;SDS011;5819;49.648;8.330;2023-06-10T12:58:43;4.07;;;3.67;;
11524;SDS011;5819;49.648;8.330;2023-06-10T13:01:12;6.03;;;3.70;;
11524;SDS011;5819;49.648;8.330;2023-06-10T13:03:40;4.05;;;3.75;;
11524;SDS011;5819;49.648;8.330;2023-06-10T13:06:08;7.05;;;4.05;;
11524;SDS011;5819;49.648;8.330;2023-06-10T13:08:37;5.18;;;4.03;;
11524;SDS011;5819;49.648;8.330;2023-06-10T13:11:05;6.57;;;3.80;;
11524;SDS011;5819;49.648;8.330;2023-06-10T13:13:34;4.05;;;3.70;;
11524;SDS011;5819;49.648;8.330;2023-06-10T13:16:05;4.40;;;4.03;;
11524;SDS011;5819;49.648;8.330;2023-06-10T13:18:33;5.20;;;4.00;;
11524;SDS011;5819;49.648;8.330;2023-06-10T13:21:03;4.72;;;4.32;;
11524;SDS011;5819;49.648;8.330;2023-06-10T13:23:31;5.32;;;4.22;;
11524;SDS011;5819;49.648;8.330;2023-06-10T13:26:01;4.88;;;4.47;;
11524;SDS011;5819;49.648;8.330;2023-06-10T13:28:30;4.20;;;3.88;;
11524;SDS011;5819;49.648;8.330;2023-06-10T13:31:01;5.43;;;4.30;;
11524;SDS011;5819;49.648;8.330;2023-06-10T13:33:30;4.43;;;4.03;;
11524;SDS011;5819;49.648;8.330;2023-06-10T13:35:57;4.43;;;4.03;;
11524;SDS011;5819;49.648;8.330;2023-06-10T13:38:26;4.00;;;3.70;;
11524;SDS011;5819;49.648;8.330;2023-06-10T13:40:53;4.15;;;3.83;;
11524;SDS011;5819;49.648;8.330;2023-06-10T13:43:22;3.83;;;3.53;;
11524;SDS011;5819;49.648;8.330;2023-06-10T13:45:51;4.88;;;4.05;;
11524;SDS011;5819;49.648;8.330;2023-06-10T13:48:19;5.13;;;4.25;;
11524;SDS011;5819;49.648;8.330;2023-06-10T13:50:47;4.07;;;3.67;;
11524;SDS011;5819;49.648;8.330;2023-06-10T13:53:15;4.78;;;4.10;;
11524;SDS011;5819;49.648;8.330;2023-06-10T13:55:43;4.38;;;3.97;;
11524;SDS011;5819;49.648;8.330;2023-06-10T13:58:11;4.30;;;3.90;;
11524;SDS011;5819;49.648;8.330;2023-06-10T14:00:40;4.63;;;4.20;;
11524;SDS011;5819;49.648;8.330;2023-06-10T14:03:09;4.53;;;4.13;;
11524;SDS011;5819;49.648;8.330;2023-06-10T14:05:38;5.47;;;3.97;;
11524;SDS011;5819;49.648;8.330;2023-06-10T14:08:06;4.43;;;4.03;;
11524;SDS011;5819;49.648;8.330;2023-06-10T14:10:34;5.50;;;4.05;;
11524;SDS011;5819;49.648;8.330;2023-06-10T14:13:02;5.50;;;4.13;;
11524;SDS011;5819;49.648;8.330;2023-06-10T14:15:31;5.18;;;4.10;;
11524;SDS011;5819;49.648;8.330;2023-06-10T14:18:02;5.50;;;4.00;;
11524;SDS011;5819;49.648;8.330;2023-06-10T14:20:30;4.47;;;4.00;;
11524;SDS011;5819;49.648;8.330;2023-06-10T14:22:58;5.00;;;4.05;;
11524;SDS011;5819;49.648;8.330;2023-06-10T14:25:26;4.75;;;4.35;;
11524;SDS011;5819;49.648;8.330;2023-06-10T14:27:54;5.00;;;4.45;;
11524;SDS011;5819;49.648;8.330;2023-06-10T14:30:22;4.13;;;3.80;;
11524;SDS011;5819;49.648;8.330;2023-06-10T14:32:50;4.85;;;4.00;;
11524;SDS011;5819;49.648;8.330;2023-06-10T14:35:19;5.20;;;3.67;;
11524;SDS011;5819;49.648;8.330;2023-06-10T14:37:47;4.20;;;3.88;;
11524;SDS011;5819;49.648;8.330;2023-06-10T14:40:15;3.90;;;3.60;;
11524;SDS011;5819;49.648;8.330;2023-06-10T14:42:44;6.03;;;3.50;;
11524;SDS011;5819;49.648;8.330;2023-06-10T14:45:12;4.38;;;3.97;;
11524;SDS011;5819;49.648;8.330;2023-06-10T14:47:41;5.28;;;3.97;;
11524;SDS011;5819;49.648;8.330;2023-06-10T14:50:09;5.38;;;3.90;;
11524;SDS011;5819;49.648;8.330;2023-06-10T14:52:38;5.03;;;3.60;;
11524;SDS011;5819;49.648;8.330;2023-06-10T14:55:06;4.10;;;3.70;;
11524;SDS011;5819;49.648;8.330;2023-06-10T14:57:35;3.92;;;3.63;;
11524;SDS011;5819;49.648;8.330;2023-06-10T15:00:04;4.57;;;4.15;;
11524;SDS011;5819;49.648;8.330;2023-06-10T15:02:33;4.68;;;4.28;;
11524;SDS011;5819;49.648;8.330;2023-06-10T15:05:00;4.00;;;3.70;;
11524;SDS011;5819;49.648;8.330;2023-06-10T15:07:29;4.57;;;4.25;;
11524;SDS011;5819;49.648;8.330;2023-06-10T15:09:58;5.70;;;4.70;;